Time;durP1;ratioP1;P1;durP2;ratioP2;P2;SDS_P1;SDS_P2;PMS_P1;PMS_P2;Temp;Humidity;BMP_temperature;BMP_pressure;BME280_temperature;BME280_humidity;BME280_pressure;Samples;Min_cycle;Max_cycle;Signal;HPM_P1;HPM_P2
2021/07/31 00:00:42;;;;;;;8.17;4.20;;;19.60;99.90;;;;;;4166338;28;20239;-77
2021/07/31 00:02:45;;;;;;;7.73;4.00;;;19.60;99.90;;;;;;4166845;28;20246;-77
2021/07/31 00:04:47;;;;;;;8.30;4.60;;;19.50;99.90;;;;;;4165816;28;20553;-77
2021/07/31 00:06:49;;;;;;;15.47;4.80;;;19.50;99.90;;;;;;4165413;28;20228;-77
2021/07/31 00:08:50;;;;;;;8.43;4.50;;;19.50;99.90;;;;;;4164253;28;20207;-77
2021/07/31 00:10:52;;;;;;;6.23;4.10;;;19.50;99.90;;;;;;4172325;28;20231;-77
2021/07/31 00:12:54;;;;;;;6.30;3.97;;;19.50;99.90;;;;;;4163969;28;20209;-77
2021/07/31 00:14:55;;;;;;;7.43;3.97;;;19.50;99.90;;;;;;4172142;28;20719;-77
2021/07/31 00:16:57;;;;;;;8.57;4.47;;;19.40;99.90;;;;;;4171137;28;20273;-78
2021/07/31 00:19:00;;;;;;;7.93;4.90;;;19.50;99.90;;;;;;4168274;28;20219;-78
2021/07/31 00:21:02;;;;;;;6.23;4.37;;;19.40;99.90;;;;;;4169818;28;20236;-77
2021/07/31 00:23:04;;;;;;;6.20;4.07;;;19.40;99.90;;;;;;4167404;28;20204;-77
2021/07/31 00:25:07;;;;;;;7.87;4.60;;;19.40;99.90;;;;;;4166760;28;20635;-77
2021/07/31 00:27:08;;;;;;;6.60;4.17;;;19.40;99.90;;;;;;4166737;28;20220;-77
2021/07/31 00:29:10;;;;;;;9.30;4.47;;;19.40;99.90;;;;;;4162825;28;20232;-78
2021/07/31 00:31:12;;;;;;;6.43;4.47;;;19.40;99.90;;;;;;4165590;28;20290;-77
2021/07/31 00:33:14;;;;;;;9.80;4.37;;;19.40;99.90;;;;;;4173407;28;20572;-77
2021/07/31 00:35:17;;;;;;;8.37;4.60;;;19.40;99.90;;;;;;4167809;28;20230;-77
2021/07/31 00:37:19;;;;;;;8.50;4.13;;;19.30;99.90;;;;;;4180041;28;20259;-77
2021/07/31 00:39:21;;;;;;;8.93;4.53;;;19.30;99.90;;;;;;4178554;28;20211;-77
2021/07/31 00:41:22;;;;;;;9.50;4.40;;;19.30;99.90;;;;;;4179163;28;20239;-77
2021/07/31 00:43:24;;;;;;;6.47;3.80;;;19.30;99.90;;;;;;4182098;28;20210;-76
2021/07/31 00:45:26;;;;;;;7.63;4.80;;;19.30;99.90;;;;;;4180019;28;20666;-77
2021/07/31 00:47:28;;;;;;;8.70;4.33;;;19.30;99.90;;;;;;4180737;28;20236;-78
2021/07/31 00:49:30;;;;;;;7.17;4.33;;;19.30;99.90;;;;;;4171728;28;20213;-77
2021/07/31 00:51:33;;;;;;;6.83;4.20;;;19.20;99.90;;;;;;4180836;28;20231;-77
2021/07/31 00:53:35;;;;;;;7.80;4.00;;;19.30;99.90;;;;;;4182539;28;20214;-76
2021/07/31 00:55:37;;;;;;;9.87;4.43;;;19.20;99.90;;;;;;4177853;28;20267;-77
2021/07/31 00:57:40;;;;;;;8.67;4.87;;;19.30;99.90;;;;;;4182673;28;20218;-77
2021/07/31 00:59:42;;;;;;;8.40;4.23;;;19.20;99.90;;;;;;4175411;28;20740;-78
2021/07/31 01:01:44;;;;;;;7.43;4.33;;;19.20;99.90;;;;;;4173721;28;20258;-77
2021/07/31 01:03:46;;;;;;;10.40;4.70;;;19.20;99.90;;;;;;4171164;28;20721;-77
2021/07/31 01:05:48;;;;;;;7.87;4.37;;;19.00;99.90;;;;;;4174190;28;20216;-77
2021/07/31 01:07:52;;;;;;;6.20;4.60;;;19.20;99.90;;;;;;4182494;28;20236;-77
2021/07/31 01:09:54;;;;;;;10.80;4.60;;;19.20;99.90;;;;;;4181004;28;20623;-76
2021/07/31 01:11:56;;;;;;;6.60;4.80;;;19.20;99.90;;;;;;4181994;28;20218;-77
2021/07/31 01:13:57;;;;;;;8.23;5.00;;;19.20;99.90;;;;;;4179308;28;20215;-77
2021/07/31 01:16:01;;;;;;;11.83;4.87;;;19.20;99.90;;;;;;4166066;28;20224;-77
2021/07/31 01:18:03;;;;;;;10.03;4.57;;;19.20;99.90;;;;;;4165447;28;20199;-77
2021/07/31 01:20:06;;;;;;;7.13;4.87;;;19.20;99.90;;;;;;4165231;28;20218;-78
2021/07/31 01:22:09;;;;;;;5.97;4.60;;;19.20;99.90;;;;;;4165391;28;20222;-76
2021/07/31 01:24:12;;;;;;;6.90;4.57;;;19.10;99.90;;;;;;4165769;28;20216;-77
2021/07/31 01:26:14;;;;;;;7.97;4.90;;;19.10;99.90;;;;;;4165997;28;20222;-77
2021/07/31 01:28:16;;;;;;;9.50;4.67;;;19.20;99.90;;;;;;4181101;28;20235;-77
2021/07/31 01:30:18;;;;;;;7.60;4.50;;;19.10;99.90;;;;;;4176275;28;20236;-77
2021/07/31 01:32:20;;;;;;;7.17;4.60;;;19.20;99.90;;;;;;4165549;28;20213;-77
2021/07/31 01:34:21;;;;;;;8.77;4.70;;;19.20;99.90;;;;;;4180781;28;20598;-77
2021/07/31 01:36:23;;;;;;;5.93;4.67;;;19.20;99.90;;;;;;4181264;28;20205;-77
2021/07/31 01:38:26;;;;;;;7.77;4.60;;;19.20;99.90;;;;;;4176336;28;20212;-76
2021/07/31 01:40:30;;;;;;;6.80;4.70;;;19.20;99.90;;;;;;4177794;28;20230;-77
2021/07/31 01:42:32;;;;;;;5.97;4.13;;;19.20;99.90;;;;;;4181160;28;20551;-77
2021/07/31 01:44:34;;;;;;;7.87;4.80;;;19.20;99.90;;;;;;4181100;28;20218;-77
2021/07/31 01:46:36;;;;;;;7.53;4.57;;;19.20;99.90;;;;;;4170420;28;20203;-77
2021/07/31 01:48:37;;;;;;;6.57;4.47;;;19.20;99.90;;;;;;4165153;28;20209;-78
2021/07/31 01:50:42;;;;;;;6.37;4.57;;;19.20;99.90;;;;;;4163001;28;20235;-77
2021/07/31 01:52:44;;;;;;;8.23;4.57;;;19.20;99.90;;;;;;4165168;28;20218;-77
2021/07/31 01:54:47;;;;;;;9.30;4.60;;;19.20;99.90;;;;;;4164858;28;20355;-77
2021/07/31 01:56:49;;;;;;;8.73;4.90;;;19.10;99.90;;;;;;4170239;28;20212;-77
2021/07/31 01:58:51;;;;;;;8.07;4.57;;;19.10;99.90;;;;;;4164967;28;20212;-77
2021/07/31 02:00:54;;;;;;;8.57;4.43;;;19.10;99.90;;;;;;4170617;28;20263;-76
2021/07/31 02:02:55;;;;;;;5.83;4.33;;;19.10;99.90;;;;;;4180250;28;20222;-77
2021/07/31 02:04:57;;;;;;;7.57;4.13;;;19.00;99.90;;;;;;4180329;28;20215;-77
2021/07/31 02:06:59;;;;;;;6.47;4.50;;;19.00;99.90;;;;;;4168104;28;20286;-77
2021/07/31 02:09:01;;;;;;;6.27;4.53;;;19.00;99.90;;;;;;4179202;28;20733;-79
2021/07/31 02:11:04;;;;;;;5.60;4.23;;;18.90;99.90;;;;;;4181415;28;20235;-77
2021/07/31 02:13:05;;;;;;;6.73;3.80;;;18.90;99.90;;;;;;4180752;28;20684;-77
2021/07/31 02:15:08;;;;;;;6.77;4.80;;;18.90;99.90;;;;;;4175386;28;20218;-77
2021/07/31 02:17:10;;;;;;;5.40;4.00;;;18.90;99.90;;;;;;4164746;28;20204;-77
2021/07/31 02:19:12;;;;;;;6.23;4.30;;;18.80;99.90;;;;;;4163829;28;20634;-76
2021/07/31 02:21:14;;;;;;;6.03;4.40;;;18.80;99.90;;;;;;4166053;28;20702;-76
2021/07/31 02:23:16;;;;;;;5.87;4.13;;;18.80;99.90;;;;;;4165165;28;20208;-77
2021/07/31 02:25:18;;;;;;;5.60;4.10;;;18.70;99.90;;;;;;4163897;28;20211;-77
2021/07/31 02:27:21;;;;;;;5.20;4.10;;;18.70;99.90;;;;;;4170025;28;20229;-77
2021/07/31 02:29:22;;;;;;;6.93;4.30;;;18.80;99.90;;;;;;4174261;28;20276;-76
2021/07/31 02:31:24;;;;;;;5.77;3.93;;;18.70;99.90;;;;;;4168509;28;20728;-76
2021/07/31 02:33:26;;;;;;;5.53;4.17;;;18.70;99.90;;;;;;4169257;28;20211;-76
2021/07/31 02:35:33;;;;;;;6.20;4.30;;;18.60;99.90;;;;;;4177002;28;20208;-77
2021/07/31 02:37:35;;;;;;;5.97;3.90;;;18.60;99.90;;;;;;4165025;28;20220;-77
2021/07/31 02:39:37;;;;;;;5.30;3.90;;;18.60;99.90;;;;;;4173295;28;20218;-78
2021/07/31 02:41:38;;;;;;;6.57;3.80;;;18.50;99.90;;;;;;4175123;28;20312;-77
2021/07/31 02:43:42;;;;;;;6.37;4.27;;;18.50;99.90;;;;;;4174464;28;20222;-76
2021/07/31 02:45:43;;;;;;;8.23;3.87;;;18.40;99.90;;;;;;4168698;28;20222;-77
2021/07/31 02:47:45;;;;;;;7.67;4.30;;;18.50;99.90;;;;;;4167783;28;20644;-78
2021/07/31 02:49:47;;;;;;;5.80;4.10;;;18.40;99.90;;;;;;4164412;28;20660;-76
2021/07/31 02:51:48;;;;;;;5.83;3.93;;;18.40;99.90;;;;;;4164549;28;20664;-77
2021/07/31 02:53:50;;;;;;;4.77;3.90;;;18.40;99.90;;;;;;4164208;28;20215;-77
2021/07/31 02:55:52;;;;;;;6.43;4.03;;;18.30;99.90;;;;;;4168244;28;20235;-78
2021/07/31 02:57:53;;;;;;;6.90;4.30;;;18.30;99.90;;;;;;4174257;28;20214;-79
2021/07/31 02:59:56;;;;;;;6.30;3.70;;;18.30;99.90;;;;;;4172536;28;20257;-77
2021/07/31 03:01:58;;;;;;;4.97;4.00;;;18.20;99.90;;;;;;4176819;28;20585;-77
2021/07/31 03:04:00;;;;;;;5.50;3.73;;;18.20;99.90;;;;;;4170563;28;20691;-77
2021/07/31 03:06:02;;;;;;;5.30;4.10;;;18.20;99.90;;;;;;4169814;28;20215;-77
2021/07/31 03:08:04;;;;;;;6.03;3.87;;;18.20;99.90;;;;;;4164186;28;20704;-77
2021/07/31 03:10:07;;;;;;;6.43;4.40;;;18.20;99.90;;;;;;4163016;28;20292;-77
2021/07/31 03:12:09;;;;;;;5.60;4.07;;;18.10;99.90;;;;;;4188683;28;20237;-77
2021/07/31 03:14:12;;;;;;;6.20;4.50;;;18.10;99.90;;;;;;4176395;28;20211;-76
2021/07/31 03:16:15;;;;;;;7.13;4.30;;;18.10;99.90;;;;;;4163440;28;20211;-77
2021/07/31 03:18:16;;;;;;;5.87;4.27;;;18.00;99.90;;;;;;4164138;28;20207;-77
2021/07/31 03:20:18;;;;;;;7.33;4.17;;;18.00;99.90;;;;;;4174475;28;20226;-78
2021/07/31 03:22:20;;;;;;;6.37;3.97;;;18.00;99.90;;;;;;4173876;28;20211;-76
2021/07/31 03:24:20;;;;;;;5.03;3.73;;;18.00;99.90;;;;;;4162914;28;20219;-76
2021/07/31 03:26:22;;;;;;;5.67;3.73;;;17.90;99.90;;;;;;4162964;28;20617;-77
2021/07/31 03:28:24;;;;;;;5.53;3.87;;;17.90;99.90;;;;;;4165125;28;20601;-76
2021/07/31 03:30:25;;;;;;;5.60;4.30;;;17.90;99.90;;;;;;4170924;28;20248;-77
2021/07/31 03:32:28;;;;;;;5.20;3.90;;;17.90;99.90;;;;;;4171719;28;20741;-77
2021/07/31 03:34:31;;;;;;;6.97;4.73;;;17.80;99.90;;;;;;4167492;28;20207;-76
2021/07/31 03:36:33;;;;;;;6.83;3.93;;;17.80;99.90;;;;;;4170569;28;20213;-77
2021/07/31 03:38:34;;;;;;;5.53;4.03;;;17.80;99.90;;;;;;4164079;28;20584;-77
2021/07/31 03:40:37;;;;;;;6.17;4.27;;;17.70;99.90;;;;;;4167373;28;20516;-77
2021/07/31 03:42:39;;;;;;;5.97;4.10;;;17.70;99.90;;;;;;4162815;28;20223;-76
2021/07/31 03:44:40;;;;;;;7.80;4.60;;;17.70;99.90;;;;;;4163210;28;20207;-77
2021/07/31 03:46:43;;;;;;;6.40;3.80;;;17.60;99.90;;;;;;4176703;28;20229;-76
2021/07/31 03:48:46;;;;;;;6.27;4.13;;;17.60;99.90;;;;;;4179288;28;20470;-77
2021/07/31 03:50:48;;;;;;;5.10;3.70;;;17.60;99.90;;;;;;4176549;28;20241;-77
2021/07/31 03:52:50;;;;;;;7.03;4.13;;;17.50;99.90;;;;;;4172593;28;20269;-76
2021/07/31 03:54:51;;;;;;;7.97;4.30;;;17.50;99.90;;;;;;4179027;28;20210;-77
2021/07/31 03:56:53;;;;;;;5.73;4.10;;;17.50;99.90;;;;;;4172068;28;20207;-77
2021/07/31 03:58:55;;;;;;;6.97;4.50;;;17.40;99.90;;;;;;4177710;28;20214;-77
2021/07/31 04:00:57;;;;;;;5.50;4.00;;;17.40;99.90;;;;;;4172985;28;20544;-76
2021/07/31 04:02:58;;;;;;;9.47;4.23;;;17.40;99.90;;;;;;4173733;28;20226;-76
2021/07/31 04:05:01;;;;;;;7.30;4.37;;;17.30;99.90;;;;;;4171533;28;20207;-77
2021/07/31 04:07:04;;;;;;;6.97;4.20;;;17.40;99.90;;;;;;4174633;28;20675;-77
2021/07/31 04:09:06;;;;;;;5.47;4.10;;;17.30;99.90;;;;;;4181946;28;20292;-77
2021/07/31 04:11:08;;;;;;;7.33;4.20;;;17.30;99.90;;;;;;4181367;28;20316;-77
2021/07/31 04:13:09;;;;;;;5.73;4.07;;;17.30;99.90;;;;;;4184384;28;20249;-78
2021/07/31 04:15:12;;;;;;;6.00;3.90;;;17.30;99.90;;;;;;4177429;28;20217;-77
2021/07/31 04:17:14;;;;;;;5.90;4.20;;;17.30;99.90;;;;;;4166052;28;20242;-76
2021/07/31 04:19:14;;;;;;;7.83;4.77;;;17.20;99.90;;;;;;4166821;28;20211;-78
2021/07/31 04:21:17;;;;;;;8.07;4.27;;;17.20;99.90;;;;;;4172996;28;20351;-76
2021/07/31 04:23:19;;;;;;;6.53;4.30;;;17.20;99.90;;;;;;4190805;28;20206;-76
2021/07/31 04:25:21;;;;;;;4.67;3.60;;;17.20;99.90;;;;;;4199415;28;20202;-77
2021/07/31 04:27:24;;;;;;;5.63;4.00;;;17.20;99.90;;;;;;4199107;28;20213;-78
2021/07/31 04:29:26;;;;;;;5.67;3.87;;;17.20;99.90;;;;;;4193637;28;20299;-77
2021/07/31 04:31:28;;;;;;;6.80;4.10;;;17.20;99.90;;;;;;4175359;28;20234;-77
2021/07/31 04:33:29;;;;;;;6.23;3.90;;;17.10;99.90;;;;;;4174308;28;20222;-76
2021/07/31 04:35:32;;;;;;;6.97;3.93;;;17.20;99.90;;;;;;4175792;28;20206;-77
2021/07/31 04:37:36;;;;;;;5.60;3.60;;;17.10;99.90;;;;;;4171582;28;20206;-76
2021/07/31 04:39:38;;;;;;;5.87;3.20;;;17.20;99.90;;;;;;4168319;28;20211;-76
2021/07/31 04:41:40;;;;;;;6.00;3.70;;;17.20;99.90;;;;;;4166636;28;20261;-77
2021/07/31 04:43:42;;;;;;;5.27;3.47;;;17.20;99.90;;;;;;4165617;28;20210;-77
2021/07/31 04:45:43;;;;;;;8.80;3.73;;;17.20;99.90;;;;;;4166255;28;20207;-77
2021/07/31 04:47:45;;;;;;;5.73;3.77;;;17.20;99.90;;;;;;4166213;28;20639;-77
2021/07/31 04:49:47;;;;;;;5.40;3.53;;;17.20;99.90;;;;;;4171358;28;20640;-77
2021/07/31 04:51:49;;;;;;;5.93;3.43;;;17.20;99.90;;;;;;4182720;28;20212;-77
2021/07/31 04:53:52;;;;;;;5.10;3.60;;;17.30;99.90;;;;;;4181991;28;20206;-78
2021/07/31 04:55:54;;;;;;;5.63;3.50;;;17.30;99.90;;;;;;4182366;28;20214;-77
2021/07/31 04:57:55;;;;;;;4.60;3.37;;;17.30;99.90;;;;;;4180544;28;20206;-77
2021/07/31 04:59:57;;;;;;;7.03;3.63;;;17.30;99.90;;;;;;4181920;28;20737;-77
2021/07/31 05:01:59;;;;;;;5.33;3.17;;;17.30;99.90;;;;;;4182072;28;20334;-77
2021/07/31 05:04:00;;;;;;;5.93;3.30;;;17.40;99.90;;;;;;4179625;28;20233;-77
2021/07/31 05:06:05;;;;;;;6.00;3.60;;;17.40;99.90;;;;;;4164649;28;20686;-77
2021/07/31 05:08:07;;;;;;;5.73;2.77;;;17.40;99.90;;;;;;4165470;28;20328;-77
2021/07/31 05:10:11;;;;;;;7.40;3.60;;;17.40;99.90;;;;;;4175864;28;20586;-78
2021/07/31 05:12:13;;;;;;;4.90;3.00;;;17.50;99.90;;;;;;4182267;28;20668;-78
2021/07/31 05:14:15;;;;;;;5.03;3.10;;;17.50;99.90;;;;;;4172995;28;20211;-77
2021/07/31 05:16:18;;;;;;;6.27;3.13;;;17.50;99.90;;;;;;4166115;28;20276;-77
2021/07/31 05:18:19;;;;;;;3.43;2.63;;;17.50;99.90;;;;;;4177653;28;20207;-77
2021/07/31 05:20:21;;;;;;;4.37;3.17;;;17.50;99.90;;;;;;4181693;28;20226;-77
2021/07/31 05:22:23;;;;;;;3.77;2.37;;;17.60;99.90;;;;;;4181801;28;20663;-77
2021/07/31 05:24:24;;;;;;;6.47;2.60;;;17.60;99.90;;;;;;4180940;28;20206;-77
2021/07/31 05:26:27;;;;;;;4.03;2.50;;;17.60;99.90;;;;;;4170479;28;20257;-77
2021/07/31 05:28:29;;;;;;;7.80;2.47;;;17.70;99.90;;;;;;4175762;28;20234;-77
2021/07/31 05:30:31;;;;;;;3.90;2.73;;;17.70;99.90;;;;;;4177915;28;20612;-76
2021/07/31 05:32:34;;;;;;;4.43;2.57;;;17.70;99.90;;;;;;4172666;28;20214;-77
2021/07/31 05:34:35;;;;;;;4.80;2.53;;;17.70;99.90;;;;;;4176594;28;20293;-78
2021/07/31 05:36:38;;;;;;;4.77;2.50;;;17.80;99.90;;;;;;4166145;28;20274;-77
2021/07/31 05:38:40;;;;;;;3.47;2.20;;;17.80;99.90;;;;;;4165138;28;20250;-78
2021/07/31 05:40:43;;;;;;;3.20;2.13;;;17.80;99.90;;;;;;4180765;28;20292;-77
2021/07/31 05:42:46;;;;;;;2.90;2.20;;;17.80;99.90;;;;;;4181016;28;20209;-77
2021/07/31 05:44:47;;;;;;;9.23;3.07;;;17.90;99.90;;;;;;4181231;28;20215;-76
2021/07/31 05:46:49;;;;;;;4.90;2.40;;;17.80;99.90;;;;;;4182452;28;20206;-77
2021/07/31 05:48:52;;;;;;;2.90;1.80;;;17.80;99.90;;;;;;4188992;28;20604;-79
2021/07/31 05:50:54;;;;;;;4.37;2.10;;;17.90;99.90;;;;;;4190474;28;20221;-77
2021/07/31 05:52:55;;;;;;;3.60;2.03;;;17.90;99.90;;;;;;4177637;28;20214;-77
2021/07/31 05:54:57;;;;;;;2.60;1.93;;;17.90;99.90;;;;;;4165370;28;20215;-77
2021/07/31 05:56:59;;;;;;;4.77;2.20;;;18.00;99.90;;;;;;4181010;28;20206;-78
2021/07/31 05:59:02;;;;;;;4.33;2.00;;;18.00;99.90;;;;;;4170663;28;20230;-77
2021/07/31 06:01:05;;;;;;;5.73;2.07;;;18.10;99.90;;;;;;4164359;28;20628;-77
2021/07/31 06:03:07;;;;;;;5.03;1.87;;;18.10;99.90;;;;;;4165376;28;20299;-77
2021/07/31 06:05:11;;;;;;;3.10;1.70;;;18.10;99.80;;;;;;4182212;28;20237;-78
2021/07/31 06:07:12;;;;;;;4.77;2.00;;;18.20;99.60;;;;;;4183460;28;20218;-78
2021/07/31 06:09:14;;;;;;;4.60;1.60;;;18.20;99.60;;;;;;4180816;28;20241;-77
2021/07/31 06:11:16;;;;;;;3.73;1.60;;;18.20;99.60;;;;;;4179488;28;20230;-78
2021/07/31 06:13:17;;;;;;;4.57;1.70;;;18.30;99.70;;;;;;4182423;28;20252;-78
2021/07/31 06:15:21;;;;;;;3.33;1.90;;;18.20;99.50;;;;;;4180676;28;20264;-78
2021/07/31 06:17:22;;;;;;;2.80;1.63;;;18.30;99.70;;;;;;4181629;28;20207;-78
2021/07/31 06:19:24;;;;;;;5.33;2.00;;;18.30;99.40;;;;;;4179276;28;20268;-78
2021/07/31 06:21:26;;;;;;;4.83;1.57;;;18.40;99.10;;;;;;4181074;28;20230;-78
2021/07/31 06:23:27;;;;;;;2.27;1.50;;;18.50;97.90;;;;;;4191816;28;20245;-78
2021/07/31 06:25:29;;;;;;;2.73;1.40;;;18.50;96.90;;;;;;4183980;28;20263;-77
2021/07/31 06:27:31;;;;;;;5.17;1.53;;;18.60;96.90;;;;;;4176030;28;20217;-78
2021/07/31 06:29:33;;;;;;;3.13;1.27;;;18.70;96.30;;;;;;4181326;28;20261;-78
2021/07/31 06:31:36;;;;;;;3.60;1.33;;;18.70;95.90;;;;;;4184205;28;20300;-78
2021/07/31 06:33:37;;;;;;;2.60;1.30;;;18.80;95.50;;;;;;4183297;28;20210;-78
2021/07/31 06:35:39;;;;;;;3.27;1.20;;;18.90;94.20;;;;;;4173970;28;20220;-78
2021/07/31 06:37:41;;;;;;;4.80;1.47;;;19.00;93.90;;;;;;4195123;28;20211;-77
2021/07/31 06:39:42;;;;;;;4.20;1.60;;;19.00;94.20;;;;;;4189931;28;20211;-77
2021/07/31 06:41:44;;;;;;;4.33;1.53;;;19.10;93.90;;;;;;4178553;28;20280;-77
2021/07/31 06:43:46;;;;;;;9.37;1.60;;;19.10;93.60;;;;;;4166221;28;20635;-77
2021/07/31 06:45:47;;;;;;;2.73;1.30;;;19.20;93.10;;;;;;4166524;28;20220;-77
2021/07/31 06:47:50;;;;;;;2.83;1.30;;;19.20;93.10;;;;;;4171409;28;20240;-77
2021/07/31 06:49:52;;;;;;;3.07;1.37;;;19.20;93.30;;;;;;4171712;28;20239;-78
2021/07/31 06:51:54;;;;;;;3.50;1.50;;;19.20;93.20;;;;;;4172511;28;20209;-77
2021/07/31 06:53:59;;;;;;;4.60;1.20;;;19.30;93.10;;;;;;4163402;28;20209;-77
2021/07/31 06:56:01;;;;;;;5.70;1.27;;;19.40;93.30;;;;;;4180830;28;20239;-76
2021/07/31 06:58:03;;;;;;;5.43;1.63;;;19.40;93.10;;;;;;4180718;28;20212;-77
2021/07/31 07:00:06;;;;;;;4.93;1.40;;;19.40;92.30;;;;;;4169887;28;20209;-77
2021/07/31 07:02:08;;;;;;;5.43;1.47;;;19.50;91.40;;;;;;4164424;28;20232;-77
2021/07/31 07:04:11;;;;;;;3.47;1.60;;;19.50;91.60;;;;;;4164524;28;20213;-77
2021/07/31 07:06:13;;;;;;;2.57;1.57;;;19.60;91.70;;;;;;4165287;28;20224;-77
2021/07/31 07:08:15;;;;;;;4.93;1.30;;;19.60;91.70;;;;;;4164375;28;20217;-77
2021/07/31 07:10:16;;;;;;;3.07;1.10;;;19.60;91.30;;;;;;4175065;28;20251;-77
2021/07/31 07:12:18;;;;;;;5.83;1.80;;;19.60;91.40;;;;;;4180114;28;20217;-77
2021/07/31 07:14:20;;;;;;;3.13;1.20;;;19.70;91.90;;;;;;4177151;28;20212;-76
2021/07/31 07:16:21;;;;;;;5.00;1.60;;;19.70;91.90;;;;;;4176412;28;20733;-77
2021/07/31 07:18:23;;;;;;;5.23;1.50;;;19.70;92.30;;;;;;4164478;28;20234;-77
2021/07/31 07:20:27;;;;;;;3.47;1.20;;;19.80;92.30;;;;;;4165516;28;20648;-76
2021/07/31 07:22:28;;;;;;;4.07;1.50;;;19.80;92.00;;;;;;4185700;28;20438;-76
2021/07/31 07:24:30;;;;;;;3.83;1.20;;;19.90;91.00;;;;;;4183055;28;20213;-76
2021/07/31 07:26:32;;;;;;;3.13;1.50;;;19.90;90.70;;;;;;4175267;28;20662;-77
2021/07/31 07:28:33;;;;;;;4.83;1.40;;;20.00;90.10;;;;;;4174153;28;20575;-77
2021/07/31 07:30:35;;;;;;;4.30;1.53;;;20.00;89.00;;;;;;4172663;28;20239;-77
2021/07/31 07:32:37;;;;;;;2.77;1.43;;;20.10;88.60;;;;;;4172746;28;20213;-77
2021/07/31 07:34:40;;;;;;;2.87;1.20;;;20.10;88.80;;;;;;4171908;28;20754;-77
2021/07/31 07:36:43;;;;;;;2.70;1.30;;;20.10;88.60;;;;;;4170287;28;20213;-77
2021/07/31 07:38:46;;;;;;;7.77;1.60;;;20.20;87.00;;;;;;4164288;28;20207;-77
2021/07/31 07:40:47;;;;;;;5.10;1.30;;;20.20;83.30;;;;;;4170241;28;20225;-77
2021/07/31 07:42:49;;;;;;;3.53;1.10;;;20.30;83.90;;;;;;4174489;28;20212;-78
2021/07/31 07:44:51;;;;;;;7.80;1.40;;;20.30;84.00;;;;;;4172781;28;20270;-76
2021/07/31 07:46:53;;;;;;;3.60;1.27;;;20.30;83.40;;;;;;4177653;28;20657;-77
2021/07/31 07:48:54;;;;;;;4.27;1.03;;;20.30;81.60;;;;;;4176654;28;20578;-76
2021/07/31 07:50:56;;;;;;;4.17;1.17;;;20.30;80.90;;;;;;4173555;28;20292;-77
2021/07/31 07:52:59;;;;;;;3.07;1.40;;;20.30;82.20;;;;;;4180105;28;20654;-76
2021/07/31 07:55:01;;;;;;;2.00;1.20;;;20.30;83.60;;;;;;4182963;28;20265;-76
2021/07/31 07:57:06;;;;;;;2.50;1.27;;;20.30;85.10;;;;;;4182559;28;20213;-76
2021/07/31 07:59:07;;;;;;;6.13;1.23;;;20.40;82.30;;;;;;4182564;28;20210;-78
2021/07/31 08:01:12;;;;;;;2.73;1.20;;;20.40;80.20;;;;;;4178011;28;20236;-76
2021/07/31 08:03:15;;;;;;;4.33;1.20;;;20.40;80.30;;;;;;4176957;28;20263;-77
2021/07/31 08:05:16;;;;;;;3.13;1.20;;;20.40;80.60;;;;;;4174237;28;20209;-76
2021/07/31 08:07:18;;;;;;;4.13;1.23;;;20.50;81.20;;;;;;4178226;28;20689;-76
2021/07/31 08:09:21;;;;;;;2.90;1.20;;;20.50;81.10;;;;;;4177978;28;20649;-77
2021/07/31 08:11:23;;;;;;;2.90;1.20;;;20.50;81.80;;;;;;4182884;28;20229;-76
2021/07/31 08:13:24;;;;;;;1.70;0.90;;;20.60;81.70;;;;;;4182965;28;20633;-77
2021/07/31 08:15:26;;;;;;;2.87;1.20;;;20.70;80.90;;;;;;4175553;28;20246;-78
2021/07/31 08:17:28;;;;;;;3.60;1.07;;;20.70;78.80;;;;;;4175933;28;20209;-77
2021/07/31 08:19:30;;;;;;;2.73;0.70;;;20.70;75.80;;;;;;4175064;28;20216;-76
2021/07/31 08:21:31;;;;;;;4.23;1.20;;;20.70;73.50;;;;;;4174115;28;20240;-77
2021/07/31 08:23:33;;;;;;;3.17;0.90;;;20.70;74.00;;;;;;4171553;28;20668;-76
2021/07/31 08:25:37;;;;;;;4.83;0.97;;;20.70;74.70;;;;;;4174618;28;20206;-77
2021/07/31 08:27:38;;;;;;;3.90;1.00;;;20.70;74.60;;;;;;4174420;28;20731;-78
2021/07/31 08:29:40;;;;;;;1.63;1.00;;;20.60;75.00;;;;;;4172000;28;20233;-77
2021/07/31 08:31:42;;;;;;;2.00;1.00;;;20.70;74.30;;;;;;4193020;23;20237;-77
2021/07/31 08:33:45;;;;;;;1.97;1.00;;;20.70;73.60;;;;;;4182294;28;20279;-77
2021/07/31 08:35:47;;;;;;;2.33;1.00;;;20.70;74.90;;;;;;4182275;28;20705;-77
2021/07/31 08:37:48;;;;;;;5.63;1.30;;;20.80;76.90;;;;;;4180441;28;20303;-75
2021/07/31 08:39:50;;;;;;;1.17;0.80;;;20.90;73.80;;;;;;4178642;28;20415;-76
2021/07/31 08:41:54;;;;;;;3.80;1.10;;;20.90;73.00;;;;;;4180143;28;20241;-77
2021/07/31 08:43:56;;;;;;;3.73;1.13;;;21.00;70.70;;;;;;4174372;28;20241;-76
2021/07/31 08:45:58;;;;;;;3.83;0.83;;;21.00;69.10;;;;;;4178052;28;20212;-78
2021/07/31 08:48:02;;;;;;;1.70;0.80;;;21.00;70.30;;;;;;4172758;28;20670;-76
2021/07/31 08:50:05;;;;;;;1.27;0.90;;;21.10;69.50;;;;;;4172600;28;20323;-76
2021/07/31 08:52:08;;;;;;;2.17;1.00;;;21.10;69.70;;;;;;4181580;28;20214;-77
2021/07/31 08:54:09;;;;;;;1.90;1.00;;;21.20;67.80;;;;;;4172930;28;20729;-78
2021/07/31 08:56:11;;;;;;;2.23;1.10;;;21.30;66.70;;;;;;4169812;28;20210;-79
2021/07/31 08:58:15;;;;;;;4.57;1.10;;;21.30;67.20;;;;;;4174151;28;20213;-78
2021/07/31 09:00:17;;;;;;;2.80;1.10;;;21.30;67.20;;;;;;4180832;28;20205;-78
2021/07/31 09:02:19;;;;;;;3.90;1.00;;;21.30;67.30;;;;;;4181511;28;20211;-78
2021/07/31 09:04:22;;;;;;;1.30;0.90;;;21.30;67.30;;;;;;4179326;28;20214;-78
2021/07/31 09:06:28;;;;;;;1.57;0.90;;;21.30;67.30;;;;;;4177042;28;20210;-77
2021/07/31 09:08:30;;;;;;;3.67;0.97;;;21.20;66.10;;;;;;4181006;28;20214;-78
2021/07/31 09:10:33;;;;;;;2.57;1.10;;;21.30;69.20;;;;;;4173342;28;20235;-79
2021/07/31 09:12:35;;;;;;;2.90;1.60;;;21.30;65.20;;;;;;4175099;28;20629;-77
2021/07/31 09:14:46;;;;;;;6.27;1.27;;;21.30;63.00;;;;;;4170374;28;20671;-77
2021/07/31 09:16:48;;;;;;;10.10;1.00;;;21.30;65.00;;;;;;4169122;28;20211;-78
2021/07/31 09:18:49;;;;;;;4.27;1.20;;;21.30;62.50;;;;;;4175974;28;20738;-78
2021/07/31 09:20:56;;;;;;;1.30;1.03;;;21.30;61.50;;;;;;4172266;28;20700;-78
2021/07/31 09:22:58;;;;;;;1.00;0.80;;;21.40;61.80;;;;;;4174800;28;20275;-79
2021/07/31 09:25:10;;;;;;;3.30;1.10;;;21.40;61.30;;;;;;4171862;28;20635;-77
2021/07/31 09:27:25;;;;;;;4.50;0.97;;;21.50;61.30;;;;;;4171148;28;20221;-77
2021/07/31 09:29:28;;;;;;;4.43;1.10;;;21.60;60.00;;;;;;4169374;28;20225;-78
2021/07/31 09:31:32;;;;;;;1.67;1.10;;;21.70;60.00;;;;;;4169037;28;20245;-75
2021/07/31 09:33:33;;;;;;;3.60;1.03;;;21.80;59.20;;;;;;4171199;28;20233;-76
2021/07/31 09:35:35;;;;;;;2.30;1.10;;;21.80;58.50;;;;;;4168233;28;20210;-77
2021/07/31 09:37:47;;;;;;;2.97;1.37;;;21.90;58.70;;;;;;4172015;28;20738;-78
2021/07/31 09:39:55;;;;;;;4.13;1.10;;;21.90;60.60;;;;;;4175475;28;20206;-77
2021/07/31 09:41:57;;;;;;;3.80;1.07;;;22.00;56.10;;;;;;4180636;28;20226;-78
2021/07/31 09:44:10;;;;;;;5.20;1.17;;;22.00;55.70;;;;;;4180663;28;20268;-78
2021/07/31 09:46:33;;;;;;;2.27;1.00;;;22.00;56.70;;;;;;4165165;28;20218;-77
2021/07/31 09:48:58;;;;;;;4.67;1.10;;;22.10;55.50;;;;;;4164675;28;20211;-78
2021/07/31 09:51:00;;;;;;;1.33;1.00;;;22.10;54.90;;;;;;4175944;28;20230;-76
2021/07/31 09:53:10;;;;;;;5.07;1.30;;;22.20;55.60;;;;;;4181087;28;20745;-77
2021/07/31 09:55:12;;;;;;;3.23;1.20;;;22.20;56.80;;;;;;4179614;28;20243;-78
2021/07/31 09:57:15;;;;;;;4.10;1.23;;;22.30;55.20;;;;;;4174002;28;20726;-77
2021/07/31 09:59:18;;;;;;;1.30;1.13;;;22.40;54.20;;;;;;4176747;28;20241;-77
2021/07/31 10:01:20;;;;;;;2.73;1.20;;;22.50;54.10;;;;;;4172218;28;20225;-77
2021/07/31 10:03:23;;;;;;;3.60;1.30;;;22.50;54.20;;;;;;4165246;28;20635;-77
2021/07/31 10:05:25;;;;;;;2.83;1.23;;;22.50;53.00;;;;;;4164823;28;20213;-77
2021/07/31 10:07:27;;;;;;;1.77;1.07;;;22.50;53.90;;;;;;4163807;28;20205;-78
2021/07/31 10:09:30;;;;;;;1.93;1.17;;;22.50;52.30;;;;;;4163814;28;20275;-78
2021/07/31 10:11:33;;;;;;;4.07;1.13;;;22.50;52.90;;;;;;4178388;28;20232;-78
2021/07/31 10:13:37;;;;;;;5.73;1.60;;;22.60;51.70;;;;;;4181261;28;20210;-77
2021/07/31 10:15:40;;;;;;;1.60;1.20;;;22.70;52.10;;;;;;4168738;28;20238;-77
2021/07/31 10:17:42;;;;;;;5.93;1.60;;;22.80;51.50;;;;;;4165366;28;20213;-78
2021/07/31 10:19:47;;;;;;;2.70;1.50;;;22.90;51.30;;;;;;4164609;28;20213;-77
2021/07/31 10:21:53;;;;;;;2.63;1.37;;;23.00;50.30;;;;;;4164280;28;20230;-77
2021/07/31 10:24:00;;;;;;;6.77;1.40;;;22.90;50.70;;;;;;4168904;28;20666;-78
2021/07/31 10:26:08;;;;;;;2.00;1.20;;;23.00;50.40;;;;;;4184062;28;20322;-78
2021/07/31 10:28:25;;;;;;;4.30;1.30;;;23.00;51.00;;;;;;4180988;28;20193;-78
2021/07/31 10:30:29;;;;;;;4.13;1.40;;;23.00;51.70;;;;;;4174216;28;20264;-78
2021/07/31 10:32:34;;;;;;;2.23;1.30;;;23.10;50.90;;;;;;4171872;28;20222;-79
2021/07/31 10:34:48;;;;;;;5.80;1.63;;;23.10;49.40;;;;;;4171940;28;20267;-80
2021/07/31 10:36:51;;;;;;;1.80;1.30;;;23.20;49.70;;;;;;4169983;28;20225;-81